createdAt,value
2023-05-09T00:00:23.886Z,46.51
2023-05-09T00:01:25.813Z,46.45
2023-05-09T00:02:27.796Z,46.68
2023-05-09T00:03:29.739Z,46.48
2023-05-09T00:04:31.629Z,46.79
2023-05-09T00:05:33.576Z,46.86
2023-05-09T00:06:35.546Z,46.78
2023-05-09T00:07:37.451Z,46.69
2023-05-09T00:08:39.369Z,46.81
2023-05-09T00:09:41.266Z,46.74
2023-05-09T00:10:43.224Z,46.63
2023-05-09T00:11:45.278Z,46.80
2023-05-09T00:12:47.192Z,46.71
2023-05-09T00:13:50.005Z,46.86
2023-05-09T00:14:51.914Z,46.98
2023-05-09T00:15:53.771Z,46.84
2023-05-09T00:16:55.863Z,47.15
2023-05-09T00:17:57.847Z,47.12
2023-05-09T00:18:59.740Z,47.11
2023-05-09T00:20:02.079Z,47.15
2023-05-09T00:21:04.088Z,47.18
2023-05-09T00:22:05.947Z,47.08
2023-05-09T00:23:07.789Z,47.36
2023-05-09T00:24:09.656Z,47.27
2023-05-09T00:25:11.644Z,47.35
2023-05-09T00:26:13.984Z,47.58
2023-05-09T00:27:16.092Z,47.77
2023-05-09T00:28:17.936Z,47.40
2023-05-09T00:29:19.792Z,47.41
2023-05-09T00:30:21.763Z,47.61
2023-05-09T00:31:23.610Z,47.93
2023-05-09T00:32:25.538Z,47.82
2023-05-09T00:33:27.390Z,47.83
2023-05-09T00:34:29.251Z,47.83
2023-05-09T00:35:31.143Z,47.82
2023-05-09T00:36:33.129Z,47.64
2023-05-09T00:37:35.133Z,47.69
2023-05-09T00:38:37.293Z,47.90
2023-05-09T00:39:39.177Z,48.12
2023-05-09T00:40:41.119Z,48.13
2023-05-09T00:41:42.989Z,48.03
2023-05-09T00:42:45.425Z,47.96
2023-05-09T00:43:47.284Z,47.95
2023-05-09T00:44:49.226Z,47.97
2023-05-09T00:45:51.492Z,48.07
2023-05-09T00:46:54.549Z,48.41
2023-05-09T00:47:57.336Z,48.30
2023-05-09T00:49:00.026Z,48.25
2023-05-09T00:50:02.157Z,48.23
2023-05-09T00:51:04.125Z,48.33
2023-05-09T00:52:06.450Z,48.27
2023-05-09T00:53:09.712Z,48.62
2023-05-09T00:54:11.726Z,48.44
2023-05-09T00:55:15.296Z,48.58
2023-05-09T00:56:18.980Z,48.53
2023-05-09T00:57:22.158Z,48.62
2023-05-09T00:58:24.730Z,48.63
2023-05-09T00:59:27.678Z,48.53
2023-05-09T01:00:29.749Z,48.59
2023-05-09T01:01:31.874Z,48.53
2023-05-09T01:02:33.953Z,48.60
2023-05-09T01:03:39.965Z,48.58
2023-05-09T01:04:42.860Z,48.71
2023-05-09T01:06:05.454Z,48.69
2023-05-09T01:07:11.233Z,48.79
2023-05-09T01:08:26.147Z,48.85
2023-05-09T01:09:55.970Z,48.97
2023-05-09T01:11:10.825Z,49.03
2023-05-09T01:13:36.168Z,49.13
2023-05-09T01:14:53.366Z,49.20
2023-05-09T01:16:19.136Z,49.37
2023-05-09T01:17:30.736Z,49.40
2023-05-09T01:18:46.910Z,49.43
2023-05-09T01:19:55.319Z,49.48
2023-05-09T01:21:06.779Z,49.76
2023-05-09T01:22:10.412Z,49.65
2023-05-09T01:23:45.068Z,49.61
2023-05-09T01:25:12.375Z,49.53
2023-05-09T01:26:27.124Z,49.76
2023-05-09T01:27:58.737Z,49.88
2023-05-09T01:29:29.071Z,49.67
2023-05-09T01:30:33.930Z,49.81
2023-05-09T01:31:39.655Z,49.66
2023-05-09T01:32:42.852Z,49.70
2023-05-09T01:33:48.048Z,49.64
2023-05-09T01:34:53.673Z,49.71
2023-05-09T01:35:59.129Z,49.75
2023-05-09T01:37:04.143Z,50.02
2023-05-09T01:38:09.785Z,49.73
2023-05-09T01:39:13.957Z,49.76
2023-05-09T01:40:18.780Z,49.99
2023-05-09T01:41:23.227Z,50.09
2023-05-09T01:42:28.879Z,50.01
2023-05-09T01:43:32.975Z,49.94
2023-05-09T01:44:38.723Z,49.98
2023-05-09T01:45:42.415Z,50.16
2023-05-09T01:46:46.217Z,50.06
2023-05-09T01:47:49.562Z,50.12
2023-05-09T01:48:52.695Z,50.07
2023-05-09T01:49:55.274Z,50.34
2023-05-09T01:50:58.712Z,50.28
2023-05-09T01:52:08.919Z,50.46
2023-05-09T01:53:11.400Z,50.59
2023-05-09T01:54:14.376Z,50.58
2023-05-09T01:55:18.513Z,50.74
2023-05-09T01:56:22.782Z,50.43
2023-05-09T01:57:26.431Z,50.77
2023-05-09T01:58:30.550Z,50.74
2023-05-09T01:59:34.499Z,50.65
2023-05-09T02:00:37.370Z,50.82
2023-05-09T02:01:39.927Z,50.90
2023-05-09T02:02:42.663Z,50.77
2023-05-09T02:03:46.701Z,50.53
2023-05-09T02:04:49.769Z,50.51
2023-05-09T02:05:54.316Z,50.78
2023-05-09T02:06:57.913Z,50.60
2023-05-09T02:08:00.585Z,50.60
2023-05-09T02:09:02.703Z,51.04
2023-05-09T02:10:08.254Z,50.89
2023-05-09T02:11:10.365Z,50.66
2023-05-09T02:12:12.167Z,50.84
2023-05-09T02:13:14.626Z,50.62
2023-05-09T02:14:17.496Z,50.73
2023-05-09T02:15:20.564Z,50.79
2023-05-09T02:16:22.573Z,50.74
2023-05-09T02:17:24.777Z,50.76
2023-05-09T02:18:26.731Z,50.76
2023-05-09T02:19:28.614Z,50.82
2023-05-09T02:20:30.602Z,50.87
2023-05-09T02:21:32.767Z,50.97
2023-05-09T02:22:35.607Z,51.03
2023-05-09T02:23:37.978Z,50.95
2023-05-09T02:24:41.901Z,51.18
2023-05-09T02:25:45.396Z,51.07
2023-05-09T02:26:47.819Z,50.88
2023-05-09T02:27:51.388Z,50.98
2023-05-09T02:28:55.092Z,51.07
2023-05-09T02:29:59.047Z,50.94
2023-05-09T02:31:03.801Z,51.30
2023-05-09T02:32:10.577Z,51.79
2023-05-09T02:33:13.676Z,51.56
2023-05-09T02:34:16.387Z,51.22
2023-05-09T02:35:20.586Z,51.49
2023-05-09T02:36:23.696Z,51.48
2023-05-09T02:37:27.204Z,51.29
2023-05-09T02:38:29.274Z,51.28
2023-05-09T02:39:31.564Z,51.38
2023-05-09T02:40:33.596Z,51.31
2023-05-09T02:41:35.435Z,51.22
2023-05-09T02:42:37.295Z,51.33
2023-05-09T02:43:39.163Z,51.41
2023-05-09T02:44:41.592Z,51.41
2023-05-09T02:45:43.429Z,51.33
2023-05-09T02:46:45.664Z,51.33
2023-05-09T02:47:47.606Z,51.47
2023-05-09T02:48:49.625Z,51.43
2023-05-09T02:49:51.605Z,51.55
2023-05-09T02:50:53.648Z,51.94
2023-05-09T02:51:55.525Z,51.72
2023-05-09T02:52:57.375Z,51.59
2023-05-09T02:53:59.251Z,51.62
2023-05-09T02:55:01.535Z,51.47
2023-05-09T02:56:03.787Z,51.59
2023-05-09T02:57:06.093Z,51.44
2023-05-09T02:58:14.322Z,51.40
2023-05-09T02:59:11.892Z,51.43
2023-05-09T03:00:15.181Z,51.27
2023-05-09T03:01:17.510Z,51.31
2023-05-09T03:02:19.583Z,51.32
2023-05-09T03:03:22.343Z,51.31
2023-05-09T03:04:24.991Z,51.58
2023-05-09T03:05:27.232Z,51.58
2023-05-09T03:06:29.349Z,51.49
2023-05-09T03:07:31.229Z,51.43
2023-05-09T03:08:33.087Z,51.23
2023-05-09T03:09:34.936Z,51.35
2023-05-09T03:10:36.951Z,51.29
2023-05-09T03:11:38.784Z,50.97
2023-05-09T03:12:40.674Z,51.26
2023-05-09T03:13:42.562Z,51.03
2023-05-09T03:14:44.463Z,51.28
2023-05-09T03:15:46.304Z,51.05
2023-05-09T03:16:48.443Z,51.03
2023-05-09T03:17:50.454Z,51.14
2023-05-09T03:18:52.390Z,51.26
2023-05-09T03:19:54.322Z,50.99
2023-05-09T03:20:56.302Z,51.37
2023-05-09T03:21:58.197Z,51.57
2023-05-09T03:23:00.088Z,52.04
2023-05-09T03:24:02.010Z,51.90
2023-05-09T03:25:04.670Z,51.79
2023-05-09T03:26:06.896Z,51.64
2023-05-09T03:27:08.780Z,51.72
2023-05-09T03:28:10.630Z,51.66
2023-05-09T03:29:12.646Z,51.50
2023-05-09T03:30:15.020Z,51.59
2023-05-09T03:31:16.965Z,51.82
2023-05-09T03:32:18.806Z,51.32
2023-05-09T03:33:20.686Z,51.55
2023-05-09T03:34:22.580Z,51.49
2023-05-09T03:35:24.422Z,51.36
2023-05-09T03:36:26.431Z,51.74
2023-05-09T03:37:28.274Z,51.79
2023-05-09T03:38:30.224Z,51.65
2023-05-09T03:39:32.094Z,51.74
2023-05-09T03:40:34.100Z,51.27
2023-05-09T03:41:36.598Z,51.24
2023-05-09T03:42:38.495Z,51.04
2023-05-09T03:43:40.392Z,51.03
2023-05-09T03:44:42.247Z,51.01
2023-05-09T03:45:44.364Z,51.00
2023-05-09T03:46:46.928Z,50.89
2023-05-09T03:47:48.926Z,51.17
2023-05-09T03:48:50.851Z,50.78
2023-05-09T03:49:52.709Z,51.00
2023-05-09T03:50:54.897Z,50.72
2023-05-09T03:51:56.734Z,50.52
2023-05-09T03:52:58.571Z,50.66
2023-05-09T03:54:00.465Z,50.69
2023-05-09T03:55:03.121Z,50.59
2023-05-09T03:56:05.891Z,50.58
2023-05-09T03:57:07.759Z,50.65
2023-05-09T03:58:11.940Z,50.52
2023-05-09T03:59:13.899Z,50.53
2023-05-09T04:00:17.486Z,50.66
2023-05-09T04:01:21.104Z,50.79
2023-05-09T04:02:23.466Z,51.04
2023-05-09T04:03:26.003Z,50.87
2023-05-09T04:04:28.006Z,50.67
2023-05-09T04:05:30.279Z,50.76
2023-05-09T04:06:33.176Z,50.79
2023-05-09T04:07:35.004Z,50.74
2023-05-09T04:08:37.507Z,50.69
2023-05-09T04:09:39.397Z,50.48
2023-05-09T04:10:41.376Z,50.44
2023-05-09T04:11:43.253Z,50.41
2023-05-09T04:12:45.109Z,50.40
2023-05-09T04:13:47.058Z,50.10
2023-05-09T04:14:49.278Z,50.27
2023-05-09T04:15:51.592Z,50.27
2023-05-09T04:16:53.567Z,50.12
2023-05-09T04:17:56.042Z,50.05
2023-05-09T04:18:58.575Z,50.46
2023-05-09T04:20:00.427Z,50.34
2023-05-09T04:21:02.303Z,50.76
2023-05-09T04:22:04.144Z,50.74
2023-05-09T04:23:05.975Z,50.01
2023-05-09T04:24:08.145Z,49.93
2023-05-09T04:25:10.004Z,49.64
2023-05-09T04:26:12.374Z,49.57
2023-05-09T04:27:14.237Z,49.47
2023-05-09T04:28:16.494Z,49.29
2023-05-09T04:29:18.396Z,49.48
2023-05-09T04:30:20.351Z,49.72
2023-05-09T04:31:22.380Z,49.57
2023-05-09T04:32:24.406Z,49.26
2023-05-09T04:33:26.369Z,49.38
2023-05-09T04:34:30.153Z,49.51
2023-05-09T04:35:32.318Z,49.63
2023-05-09T04:36:34.337Z,49.38
2023-05-09T04:37:36.249Z,49.42
2023-05-09T04:38:38.176Z,48.64
2023-05-09T04:39:40.254Z,49.21
2023-05-09T04:40:42.328Z,48.76
2023-05-09T04:41:44.520Z,49.03
2023-05-09T04:42:46.368Z,49.07
2023-05-09T04:43:48.231Z,49.02
2023-05-09T04:44:50.106Z,48.72
2023-05-09T04:45:51.978Z,48.47
2023-05-09T04:46:54.145Z,48.19
2023-05-09T04:47:56.013Z,48.18
2023-05-09T04:48:57.980Z,48.18
2023-05-09T04:50:00.096Z,47.78
2023-05-09T04:51:02.018Z,47.85
2023-05-09T04:52:05.266Z,47.55
2023-05-09T04:53:07.142Z,46.77
2023-05-09T04:54:09.017Z,46.77
2023-05-09T04:55:11.018Z,46.83
2023-05-09T04:56:12.984Z,46.77
2023-05-09T04:57:18.358Z,47.13
2023-05-09T04:58:18.602Z,47.04
2023-05-09T04:59:20.486Z,46.98
2023-05-09T05:00:23.992Z,46.79
2023-05-09T05:01:26.134Z,46.79
2023-05-09T05:02:28.087Z,46.40
2023-05-09T05:03:30.120Z,46.46
2023-05-09T05:04:32.209Z,46.51
2023-05-09T05:05:36.977Z,46.82
2023-05-09T05:06:37.956Z,46.82
2023-05-09T05:07:39.853Z,46.81
2023-05-09T05:08:41.824Z,47.11
2023-05-09T05:09:43.684Z,47.05
2023-05-09T05:10:45.652Z,47.14
2023-05-09T05:11:59.500Z,47.04
2023-05-09T05:12:51.834Z,46.96
2023-05-09T05:13:54.348Z,46.53
2023-05-09T05:14:56.209Z,46.50
2023-05-09T05:15:58.195Z,46.71
2023-05-09T05:17:00.367Z,46.92
2023-05-09T05:18:02.282Z,46.63
2023-05-09T05:19:04.306Z,46.52
2023-05-09T05:20:07.354Z,46.75
2023-05-09T05:21:11.481Z,46.63
2023-05-09T05:22:13.550Z,46.68
2023-05-09T05:23:15.435Z,46.44
2023-05-09T05:24:17.260Z,46.59
2023-05-09T05:25:19.401Z,46.74
2023-05-09T05:26:21.328Z,46.23
2023-05-09T05:27:23.481Z,46.15
2023-05-09T05:28:25.324Z,45.93
2023-05-09T05:29:27.390Z,46.11
2023-05-09T05:30:31.119Z,45.86
2023-05-09T05:31:33.792Z,45.67
2023-05-09T05:32:35.896Z,45.29
2023-05-09T05:33:38.049Z,45.27
2023-05-09T05:34:40.020Z,45.26
2023-05-09T05:35:42.861Z,45.12
2023-05-09T05:36:46.145Z,45.18
2023-05-09T05:37:49.177Z,45.29
2023-05-09T05:38:51.214Z,45.32
2023-05-09T05:39:53.050Z,45.09
2023-05-09T05:40:55.201Z,44.97
2023-05-09T05:41:57.340Z,44.94
2023-05-09T05:42:59.267Z,44.64
2023-05-09T05:44:01.127Z,44.66
2023-05-09T05:45:03.303Z,44.55
2023-05-09T05:46:05.339Z,44.76
2023-05-09T05:47:07.260Z,44.86
2023-05-09T05:48:09.136Z,44.83
2023-05-09T05:49:11.155Z,44.72
2023-05-09T05:50:13.350Z,44.69
2023-05-09T05:51:15.246Z,44.42
2023-05-09T05:52:17.544Z,44.44
2023-05-09T05:53:19.401Z,44.20
2023-05-09T05:54:21.273Z,44.08
2023-05-09T05:55:23.257Z,43.92
2023-05-09T05:56:25.338Z,43.87
2023-05-09T05:57:27.230Z,43.75
2023-05-09T05:58:29.152Z,43.95
2023-05-09T05:59:31.082Z,43.86
2023-05-09T06:00:33.037Z,43.83
2023-05-09T06:01:35.005Z,43.62
2023-05-09T06:02:36.987Z,43.58
2023-05-09T06:03:39.301Z,43.22
2023-05-09T06:04:41.693Z,43.18
2023-05-09T06:05:45.942Z,43.13
2023-05-09T06:06:48.203Z,43.08
2023-05-09T06:07:50.065Z,43.01
2023-05-09T06:08:52.060Z,42.77
2023-05-09T06:09:54.020Z,42.48
2023-05-09T06:10:56.077Z,42.41
2023-05-09T06:11:57.956Z,42.41
2023-05-09T06:12:59.841Z,42.48
2023-05-09T06:14:01.829Z,42.73
2023-05-09T06:15:04.638Z,42.19
2023-05-09T06:16:17.955Z,42.39
2023-05-09T06:17:12.871Z,42.52
2023-05-09T06:18:14.932Z,42.31
2023-05-09T06:19:17.448Z,41.51
2023-05-09T06:20:19.622Z,41.60
2023-05-09T06:21:21.491Z,41.59
2023-05-09T06:22:23.463Z,41.00
2023-05-09T06:23:25.290Z,40.74
2023-05-09T06:24:35.716Z,40.74
2023-05-09T06:25:30.933Z,40.40
2023-05-09T06:26:33.082Z,39.82
2023-05-09T06:27:35.072Z,39.90
2023-05-09T06:28:37.083Z,40.45
2023-05-09T06:29:38.964Z,40.11
2023-05-09T06:30:41.021Z,40.00
2023-05-09T06:31:42.895Z,39.71
2023-05-09T06:32:44.931Z,40.05
2023-05-09T06:33:46.839Z,40.38
2023-05-09T06:34:48.697Z,40.92
2023-05-09T06:35:50.699Z,40.79
2023-05-09T06:36:52.685Z,40.83
2023-05-09T06:37:54.506Z,41.22
2023-05-09T06:38:56.388Z,41.44
2023-05-09T06:39:58.350Z,40.95
2023-05-09T06:41:00.338Z,40.92
2023-05-09T06:42:02.271Z,40.23
2023-05-09T06:43:04.213Z,39.95
2023-05-09T06:44:06.091Z,39.64
2023-05-09T06:45:09.558Z,39.07
2023-05-09T06:46:11.649Z,39.25
2023-05-09T06:47:13.683Z,39.21
2023-05-09T06:48:15.554Z,39.50
2023-05-09T06:49:17.522Z,38.94
2023-05-09T06:50:19.498Z,38.90
2023-05-09T06:51:21.383Z,39.29
2023-05-09T06:52:23.601Z,39.31
2023-05-09T06:53:25.645Z,39.08
2023-05-09T06:54:27.588Z,38.66
2023-05-09T06:55:30.295Z,38.47
2023-05-09T06:56:32.367Z,38.36
2023-05-09T06:57:34.322Z,38.39
2023-05-09T06:58:36.522Z,37.89
2023-05-09T06:59:38.489Z,37.23
2023-05-09T07:00:40.446Z,36.67
2023-05-09T07:01:42.348Z,36.61
2023-05-09T07:02:44.412Z,36.70
2023-05-09T07:03:47.691Z,36.47
2023-05-09T07:04:49.944Z,36.06
2023-05-09T07:05:51.976Z,36.36
2023-05-09T07:06:54.017Z,35.75
2023-05-09T07:07:55.987Z,35.82
2023-05-09T07:08:58.380Z,35.84
2023-05-09T07:10:10.510Z,35.52
2023-05-09T07:11:04.506Z,35.15
2023-05-09T07:12:07.867Z,35.53
2023-05-09T07:13:10.297Z,35.80
2023-05-09T07:14:12.222Z,35.44
2023-05-09T07:15:16.902Z,35.83
2023-05-09T07:16:18.050Z,35.91
2023-05-09T07:17:23.384Z,36.16
2023-05-09T07:18:24.292Z,35.76
2023-05-09T07:19:26.196Z,35.26
2023-05-09T07:20:28.269Z,34.70
2023-05-09T07:21:30.162Z,34.45
2023-05-09T07:22:34.180Z,34.77
2023-05-09T07:23:36.283Z,34.57
2023-05-09T07:24:38.618Z,34.31
2023-05-09T07:25:40.523Z,34.42
2023-05-09T07:26:42.482Z,34.00
2023-05-09T07:27:44.597Z,34.00
2023-05-09T07:28:46.542Z,34.01
2023-05-09T07:29:48.461Z,33.62
2023-05-09T07:30:50.434Z,33.15
2023-05-09T07:31:52.598Z,33.07
2023-05-09T07:32:54.560Z,33.12
2023-05-09T07:33:58.021Z,33.60
2023-05-09T07:35:00.065Z,33.04
2023-05-09T07:36:02.252Z,32.46
2023-05-09T07:37:04.683Z,32.52
2023-05-09T07:38:06.672Z,32.50
2023-05-09T07:39:08.565Z,32.27
2023-05-09T07:40:12.293Z,31.83
2023-05-09T07:41:14.423Z,31.53
2023-05-09T07:42:16.348Z,31.12
2023-05-09T07:43:18.816Z,30.68
2023-05-09T07:44:20.791Z,30.86
2023-05-09T07:45:23.884Z,30.86
2023-05-09T07:46:26.224Z,31.07
2023-05-09T07:47:28.351Z,31.52
2023-05-09T07:48:30.265Z,31.72
2023-05-09T07:49:32.474Z,31.54
2023-05-09T07:50:34.546Z,31.53
2023-05-09T07:51:36.744Z,31.00
2023-05-09T07:52:38.678Z,31.25
2023-05-09T07:53:40.614Z,31.74
2023-05-09T07:54:43.179Z,31.33
2023-05-09T07:55:45.070Z,31.04
2023-05-09T07:56:47.022Z,30.50
2023-05-09T07:57:48.862Z,30.76
2023-05-09T07:58:50.743Z,30.85
2023-05-09T07:59:52.692Z,30.60
2023-05-09T08:00:56.228Z,30.54
2023-05-09T08:01:58.367Z,30.98
2023-05-09T08:03:00.403Z,31.07
2023-05-09T08:04:02.546Z,31.32
2023-05-09T08:05:06.348Z,31.35
2023-05-09T08:06:08.980Z,30.79
2023-05-09T08:07:10.956Z,30.69
2023-05-09T08:08:12.928Z,30.47
2023-05-09T08:09:14.876Z,30.02
2023-05-09T08:10:16.824Z,29.86
2023-05-09T08:11:19.910Z,29.95
2023-05-09T08:12:21.776Z,29.94
2023-05-09T08:13:24.276Z,29.90
2023-05-09T08:14:26.329Z,29.73
2023-05-09T08:15:28.436Z,29.90
2023-05-09T08:16:30.513Z,29.43
2023-05-09T08:17:32.511Z,29.69
2023-05-09T08:18:34.545Z,29.66
2023-05-09T08:19:36.379Z,29.48
2023-05-09T08:20:38.332Z,29.74
2023-05-09T08:21:40.245Z,29.70
2023-05-09T08:22:43.730Z,29.57
2023-05-09T08:23:45.682Z,29.59
2023-05-09T08:24:47.628Z,29.54
2023-05-09T08:25:54.174Z,30.10
2023-05-09T08:26:56.219Z,29.94
2023-05-09T08:27:58.495Z,30.38
2023-05-09T08:29:00.759Z,30.76
2023-05-09T08:30:03.522Z,30.42
2023-05-09T08:31:05.808Z,29.89
2023-05-09T08:32:08.718Z,29.61
2023-05-09T08:33:10.724Z,29.37
2023-05-09T08:34:12.648Z,29.34
2023-05-09T08:35:16.113Z,29.38
2023-05-09T08:36:18.515Z,29.12
2023-05-09T08:37:20.377Z,28.84
2023-05-09T08:38:22.671Z,28.91
2023-05-09T08:39:25.078Z,28.26
2023-05-09T08:40:27.136Z,28.67
2023-05-09T08:41:31.744Z,29.19
2023-05-09T08:42:36.382Z,29.54
2023-05-09T08:43:40.125Z,28.92
2023-05-09T08:44:42.013Z,29.00
2023-05-09T08:45:53.636Z,28.34
2023-05-09T08:47:01.553Z,28.42
2023-05-09T08:48:04.437Z,28.93
2023-05-09T08:49:07.226Z,28.86
2023-05-09T08:50:09.909Z,28.91
2023-05-09T08:51:12.494Z,28.99
2023-05-09T08:52:14.864Z,29.48
2023-05-09T08:53:17.464Z,29.06
2023-05-09T08:54:22.882Z,29.24
2023-05-09T08:55:25.619Z,30.00
2023-05-09T08:57:41.170Z,30.22
2023-05-09T08:58:44.205Z,29.76
2023-05-09T08:59:48.637Z,29.33
2023-05-09T09:00:51.215Z,29.31
2023-05-09T09:01:53.737Z,29.53
2023-05-09T09:02:58.897Z,29.43
2023-05-09T09:04:04.395Z,29.99
2023-05-09T09:05:10.039Z,29.80
2023-05-09T09:06:11.429Z,30.02
2023-05-09T09:07:15.464Z,30.78
2023-05-09T09:08:17.829Z,30.49
2023-05-09T09:09:20.486Z,29.97
2023-05-09T09:10:23.357Z,29.96
2023-05-09T09:11:26.930Z,29.36
2023-05-09T09:12:29.318Z,29.27
2023-05-09T09:13:34.922Z,29.54
2023-05-09T09:14:40.543Z,29.31
2023-05-09T09:15:44.676Z,29.65
2023-05-09T09:16:49.296Z,29.54
2023-05-09T09:17:54.307Z,29.19
2023-05-09T09:18:58.932Z,29.25
2023-05-09T09:20:04.676Z,29.11
2023-05-09T09:21:09.440Z,29.38
2023-05-09T09:22:14.809Z,29.26
2023-05-09T09:23:19.220Z,29.05
2023-05-09T09:24:22.602Z,28.72
2023-05-09T09:25:24.733Z,29.49
2023-05-09T09:26:26.695Z,29.25
2023-05-09T09:27:28.760Z,29.23
2023-05-09T09:28:31.346Z,29.32
2023-05-09T09:29:34.271Z,29.21
2023-05-09T09:30:44.650Z,28.87
2023-05-09T09:31:49.439Z,28.77
2023-05-09T09:32:51.509Z,29.04
2023-05-09T09:34:03.286Z,29.44
2023-05-09T09:35:10.099Z,29.90
2023-05-09T09:36:12.161Z,30.29
2023-05-09T09:37:23.802Z,30.55
2023-05-09T09:38:25.871Z,30.42
2023-05-09T09:39:27.730Z,30.72
2023-05-09T09:40:29.705Z,30.40
2023-05-09T09:41:33.356Z,29.95
2023-05-09T09:42:44.129Z,29.32
2023-05-09T09:43:46.019Z,29.59
2023-05-09T09:44:56.904Z,29.49
2023-05-09T09:46:03.551Z,29.50
2023-05-09T09:47:09.372Z,29.42
2023-05-09T09:48:11.270Z,29.93
2023-05-09T09:49:15.095Z,30.08
2023-05-09T09:50:18.903Z,30.18
2023-05-09T09:51:20.894Z,30.32
2023-05-09T09:52:23.952Z,30.18
2023-05-09T09:53:28.912Z,30.14
2023-05-09T09:54:31.504Z,30.09
2023-05-09T09:55:34.726Z,29.90
2023-05-09T09:56:45.007Z,29.51
2023-05-09T09:57:47.905Z,29.51
2023-05-09T09:58:49.897Z,29.60
2023-05-09T10:00:00.255Z,30.12
2023-05-09T10:01:11.642Z,30.01
2023-05-09T10:02:13.712Z,29.77
2023-05-09T10:03:16.875Z,29.51
2023-05-09T10:04:19.172Z,29.58
2023-05-09T10:05:28.580Z,30.00
2023-05-09T10:06:30.972Z,30.23
2023-05-09T10:07:34.653Z,30.03
2023-05-09T10:08:36.767Z,30.44
2023-05-09T10:09:38.758Z,30.35
2023-05-09T10:10:41.615Z,30.22
2023-05-09T10:11:45.395Z,30.19
2023-05-09T10:12:50.941Z,30.27
2023-05-09T10:13:53.331Z,30.20
2023-05-09T10:14:55.837Z,30.28
2023-05-09T10:15:59.970Z,30.21
2023-05-09T10:17:04.186Z,30.51
2023-05-09T10:18:08.178Z,30.52
2023-05-09T10:19:12.637Z,30.19
2023-05-09T10:20:17.852Z,29.84
2023-05-09T10:21:19.945Z,29.84
2023-05-09T10:22:23.122Z,29.77
2023-05-09T10:23:25.572Z,29.97
2023-05-09T10:24:46.355Z,29.42
2023-05-09T10:27:08.226Z,30.02
2023-05-09T10:28:12.132Z,29.43
2023-05-09T10:29:15.596Z,29.88
2023-05-09T10:30:20.214Z,29.61
2023-05-09T10:31:30.384Z,29.63
2023-05-09T10:32:58.926Z,30.54
2023-05-09T10:34:03.394Z,30.31
2023-05-09T10:35:07.487Z,30.26
2023-05-09T10:36:11.358Z,30.24
2023-05-09T10:37:14.957Z,30.38
2023-05-09T10:38:18.019Z,30.39
2023-05-09T10:39:21.184Z,30.11
2023-05-09T10:40:23.704Z,30.11
2023-05-09T10:41:27.211Z,30.24
2023-05-09T10:42:30.115Z,30.67
2023-05-09T10:43:34.235Z,31.11
2023-05-09T10:44:38.106Z,30.56
2023-05-09T10:45:41.090Z,30.39
2023-05-09T10:46:44.959Z,30.46
2023-05-09T10:47:49.546Z,30.21
2023-05-09T10:48:51.602Z,29.89
2023-05-09T10:49:54.197Z,29.76
2023-05-09T10:50:57.070Z,29.44
2023-05-09T10:51:58.962Z,29.13
2023-05-09T10:53:06.801Z,28.77
2023-05-09T10:55:27.834Z,29.29
2023-05-09T10:56:32.829Z,29.53
2023-05-09T10:57:38.394Z,29.57
2023-05-09T10:58:40.395Z,29.65
2023-05-09T10:59:43.270Z,29.36
2023-05-09T11:00:47.913Z,30.03
2023-05-09T11:01:53.770Z,30.03
2023-05-09T11:03:08.298Z,29.92
2023-05-09T11:04:13.217Z,30.06
2023-05-09T11:05:18.696Z,29.81
2023-05-09T11:06:46.921Z,29.81
2023-05-09T11:07:52.668Z,29.68
2023-05-09T11:08:54.557Z,29.58
2023-05-09T11:10:11.613Z,30.06
2023-05-09T11:11:17.395Z,30.48
2023-05-09T11:12:20.420Z,30.53
2023-05-09T11:13:24.982Z,30.31
2023-05-09T11:14:32.518Z,30.19
2023-05-09T11:15:36.107Z,30.27
2023-05-09T11:16:41.854Z,29.95
2023-05-09T11:17:43.981Z,29.99
2023-05-09T11:18:51.160Z,30.15
2023-05-09T11:19:59.196Z,30.06
2023-05-09T11:21:09.510Z,30.03
2023-05-09T11:22:17.032Z,30.25
2023-05-09T11:23:20.192Z,30.02
2023-05-09T11:24:22.622Z,29.94
2023-05-09T11:25:25.635Z,30.55
2023-05-09T11:26:28.876Z,30.57
2023-05-09T11:27:43.831Z,30.45
2023-05-09T11:28:53.442Z,30.82
2023-05-09T11:29:58.052Z,30.82
2023-05-09T11:31:12.158Z,29.95
2023-05-09T11:32:14.360Z,29.35
2023-05-09T11:33:26.006Z,29.14
2023-05-09T11:34:29.162Z,29.18
2023-05-09T11:35:31.060Z,29.39
2023-05-09T11:36:33.382Z,29.15
2023-05-09T11:37:50.782Z,29.13
2023-05-09T11:39:04.797Z,29.18
2023-05-09T11:40:11.273Z,29.13
2023-05-09T11:41:14.610Z,29.69
2023-05-09T11:42:17.424Z,30.12
2023-05-09T11:43:19.671Z,29.97
2023-05-09T11:44:21.540Z,29.33
2023-05-09T11:45:29.052Z,29.43
2023-05-09T11:46:31.097Z,28.87
2023-05-09T11:47:36.245Z,28.77
2023-05-09T11:48:39.497Z,28.92
2023-05-09T11:49:44.414Z,28.97
2023-05-09T11:50:46.910Z,28.87
2023-05-09T11:51:48.752Z,29.03
2023-05-09T11:52:51.271Z,28.62
2023-05-09T11:53:53.188Z,28.74
2023-05-09T11:54:55.081Z,28.52
2023-05-09T11:55:57.332Z,28.81
2023-05-09T11:56:59.297Z,29.12
2023-05-09T11:58:01.182Z,29.32
2023-05-09T11:59:03.552Z,29.31
2023-05-09T12:00:06.967Z,29.21
2023-05-09T12:01:12.017Z,29.41
2023-05-09T12:02:14.762Z,29.94
2023-05-09T12:03:16.995Z,30.37
2023-05-09T12:04:19.208Z,30.54
2023-05-09T12:05:23.675Z,30.79
2023-05-09T12:06:25.882Z,30.50
2023-05-09T12:07:30.001Z,30.33
2023-05-09T12:08:32.010Z,30.42
2023-05-09T12:09:35.068Z,30.53
2023-05-09T12:10:38.482Z,30.93
2023-05-09T12:11:50.093Z,30.94
2023-05-09T12:12:52.946Z,30.57
2023-05-09T12:13:55.064Z,31.14
2023-05-09T12:15:00.706Z,31.01
2023-05-09T12:16:03.122Z,31.13
2023-05-09T12:17:08.088Z,31.26
2023-05-09T12:18:10.248Z,31.48
2023-05-09T12:19:12.335Z,31.52
2023-05-09T12:20:14.804Z,31.22
2023-05-09T12:21:18.229Z,31.29
2023-05-09T12:22:20.112Z,31.19
2023-05-09T12:23:21.996Z,30.86
2023-05-09T12:24:25.547Z,30.90
2023-05-09T12:25:27.579Z,31.22
2023-05-09T12:26:29.620Z,31.17
2023-05-09T12:27:32.320Z,31.04
2023-05-09T12:28:34.780Z,31.05
2023-05-09T12:29:36.995Z,30.92
2023-05-09T12:30:39.321Z,30.55
2023-05-09T12:31:42.227Z,30.57
2023-05-09T12:32:44.523Z,30.67
2023-05-09T12:33:46.602Z,30.66
2023-05-09T12:34:48.712Z,30.61
2023-05-09T12:36:06.343Z,31.07
2023-05-09T12:38:24.904Z,30.89
2023-05-09T12:39:27.665Z,30.68
2023-05-09T12:40:29.828Z,30.56
2023-05-09T12:41:39.254Z,30.49
2023-05-09T12:42:35.628Z,30.67
2023-05-09T12:43:38.364Z,30.24
2023-05-09T12:44:40.322Z,30.71
2023-05-09T12:45:42.193Z,30.01
2023-05-09T12:46:53.033Z,30.13
2023-05-09T12:47:56.469Z,30.05
2023-05-09T12:48:58.484Z,30.02
2023-05-09T12:50:02.345Z,30.17
2023-05-09T12:51:05.762Z,30.36
2023-05-09T12:52:11.520Z,30.58
2023-05-09T12:53:17.158Z,30.43
2023-05-09T12:55:54.156Z,30.18
2023-05-09T12:56:57.994Z,30.54
2023-05-09T12:58:03.399Z,31.12
2023-05-09T12:59:09.321Z,31.23
2023-05-09T13:00:12.757Z,31.06
2023-05-09T13:01:15.312Z,31.10
2023-05-09T13:02:17.647Z,30.79
2023-05-09T13:03:26.392Z,31.19
2023-05-09T13:04:28.389Z,31.25
2023-05-09T13:05:31.241Z,31.69
2023-05-09T13:06:34.259Z,31.81
2023-05-09T13:07:44.343Z,31.54
2023-05-09T13:08:50.043Z,31.66
2023-05-09T13:09:55.282Z,31.50
2023-05-09T13:11:14.799Z,31.51
2023-05-09T13:12:04.801Z,31.63
2023-05-09T13:13:06.980Z,31.71
2023-05-09T13:14:09.096Z,31.88
2023-05-09T13:15:11.420Z,31.81
2023-05-09T13:16:16.672Z,31.64
2023-05-09T13:17:17.372Z,31.56
2023-05-09T13:18:20.328Z,31.47
2023-05-09T13:19:22.345Z,31.39
2023-05-09T13:20:24.614Z,31.45
2023-05-09T13:21:26.899Z,31.67
2023-05-09T13:22:28.814Z,31.71
2023-05-09T13:23:30.807Z,31.75
2023-05-09T13:24:32.985Z,31.64
2023-05-09T13:25:34.929Z,31.28
2023-05-09T13:26:36.989Z,31.42
2023-05-09T13:27:39.238Z,31.69
2023-05-09T13:28:41.215Z,31.66
2023-05-09T13:29:43.161Z,31.40
2023-05-09T13:30:45.273Z,31.30
2023-05-09T13:31:47.229Z,31.54
2023-05-09T13:32:49.259Z,31.52
2023-05-09T13:33:52.315Z,31.26
2023-05-09T13:34:54.876Z,31.35
2023-05-09T13:35:56.869Z,31.42
2023-05-09T13:36:59.251Z,31.52
2023-05-09T13:38:01.201Z,31.09
2023-05-09T13:39:03.210Z,31.13
2023-05-09T13:40:06.876Z,30.89
2023-05-09T13:41:09.582Z,31.05
2023-05-09T13:42:11.446Z,31.07
2023-05-09T13:43:13.350Z,31.29
2023-05-09T13:44:15.409Z,31.48
2023-05-09T13:45:17.789Z,30.92